Time;durP1;ratioP1;P1;durP2;ratioP2;P2;SDS_P1;SDS_P2;PMS_P1;PMS_P2;Temp;Humidity;BMP_temperature;BMP_pressure;BME280_temperature;BME280_humidity;BME280_pressure;Samples;Min_cycle;Max_cycle;Signal;HPM_P1;HPM_P2
2022/04/22 00:02:07;0.00;0.00;0.62;0.00;0.00;0.62;2.50;2.30;;;27.10;21.20;;;;;;2256819;61;20381;-60
2022/04/22 00:04:52;0.00;0.00;0.62;0.00;0.00;0.62;3.50;2.00;;;27.10;21.20;;;;;;2253534;61;20473;-61
2022/04/22 00:07:37;0.00;0.00;0.62;0.00;0.00;0.62;2.60;2.40;;;27.00;21.20;;;;;;2256002;61;20405;-63
2022/04/22 00:10:23;0.00;0.00;0.62;0.00;0.00;0.62;2.60;2.40;;;27.00;21.20;;;;;;2256689;61;20354;-63
2022/04/22 00:13:07;0.00;0.00;0.62;0.00;0.00;0.62;2.73;2.53;;;27.00;21.20;;;;;;2256323;61;20366;-62
2022/04/22 00:15:52;0.00;0.00;0.62;0.00;0.00;0.62;2.97;2.67;;;27.00;21.20;;;;;;2256746;61;20401;-62
2022/04/22 00:18:38;0.00;0.00;0.62;0.00;0.00;0.62;2.80;2.20;;;27.00;21.20;;;;;;2256302;61;20885;-63
2022/04/22 00:21:23;0.00;0.00;0.62;0.00;0.00;0.62;3.10;2.63;;;26.90;21.20;;;;;;2255634;61;20436;-62
2022/04/22 00:24:08;0.00;0.00;0.62;0.00;0.00;0.62;2.93;2.60;;;27.00;21.30;;;;;;2256628;61;20886;-60
2022/04/22 00:26:54;0.00;0.00;0.62;0.00;0.00;0.62;3.10;2.40;;;26.90;21.30;;;;;;2253731;61;20362;-65
2022/04/22 00:29:38;0.00;0.00;0.62;0.00;0.00;0.62;3.37;2.70;;;26.90;21.30;;;;;;2255382;61;20365;-63
2022/04/22 00:32:23;0.00;0.00;0.62;0.00;0.00;0.62;2.37;2.17;;;26.90;21.30;;;;;;2256863;61;20434;-61
2022/04/22 00:35:08;0.00;0.00;0.62;0.00;0.00;0.62;3.07;2.50;;;26.90;21.30;;;;;;2256461;61;20374;-63
2022/04/22 00:37:53;0.00;0.00;0.62;0.00;0.00;0.62;2.70;2.50;;;26.90;21.30;;;;;;2256156;61;20365;-61
2022/04/22 00:40:38;0.00;0.00;0.62;0.00;0.00;0.62;2.90;2.60;;;26.80;21.30;;;;;;2256382;61;20500;-61
2022/04/22 00:43:26;0.00;0.00;0.62;0.00;0.00;0.62;4.77;3.20;;;26.80;21.30;;;;;;2255972;61;20510;-63
2022/04/22 00:46:12;0.00;0.00;0.62;0.00;0.00;0.62;3.20;2.50;;;26.80;21.30;;;;;;2256944;61;20444;-63
2022/04/22 00:48:56;0.00;0.00;0.62;0.00;0.00;0.62;3.10;2.80;;;26.80;21.30;;;;;;2256596;61;20457;-62
2022/04/22 00:51:41;0.00;0.00;0.62;0.00;0.00;0.62;3.00;2.60;;;26.80;21.40;;;;;;2255898;61;20431;-62
2022/04/22 00:54:27;0.00;0.00;0.62;0.00;0.00;0.62;3.30;2.70;;;26.80;21.40;;;;;;2256475;61;20358;-62
2022/04/22 00:57:13;0.00;0.00;0.62;0.00;0.00;0.62;2.90;2.60;;;26.70;21.40;;;;;;2256865;61;20682;-63
2022/04/22 00:59:59;0.00;0.00;0.62;0.00;0.00;0.62;4.03;3.63;;;26.70;21.40;;;;;;2256285;61;20374;-62
2022/04/22 01:02:44;0.00;0.00;0.62;0.00;0.00;0.62;3.50;2.90;;;26.70;21.40;;;;;;2256447;61;20389;-61
2022/04/22 01:11:37;0.00;0.00;0.62;0.00;0.00;0.62;3.70;3.10;;;26.60;21.40;;;;;;2257068;61;20376;-63
2022/04/22 01:14:22;0.00;0.00;0.62;0.00;0.00;0.62;2.90;2.60;;;26.60;21.40;;;;;;2255923;61;20358;-63
2022/04/22 01:17:08;0.00;0.00;0.62;0.00;0.00;0.62;4.40;3.23;;;26.60;21.40;;;;;;2256360;61;20373;-63
2022/04/22 01:19:53;0.00;0.00;0.62;0.00;0.00;0.62;3.73;3.07;;;26.60;21.40;;;;;;2256060;61;20366;-62
2022/04/22 01:22:39;0.00;0.00;0.62;0.00;0.00;0.62;4.67;3.27;;;26.60;21.40;;;;;;2256687;61;20844;-60
2022/04/22 01:25:24;0.00;0.00;0.62;0.00;0.00;0.62;3.50;3.10;;;26.50;21.40;;;;;;2256461;61;20386;-60
2022/04/22 01:28:10;0.00;0.00;0.62;0.00;0.00;0.62;3.20;2.90;;;26.50;21.40;;;;;;2255278;61;20421;-65
2022/04/22 01:30:56;0.00;0.00;0.62;0.00;0.00;0.62;3.30;3.00;;;26.50;21.40;;;;;;2253014;61;20494;-63
2022/04/22 01:33:40;0.00;0.00;0.62;0.00;0.00;0.62;4.53;3.40;;;26.50;21.50;;;;;;2253817;61;21006;-63
2022/04/22 01:36:24;0.00;0.00;0.62;0.00;0.00;0.62;3.70;3.40;;;26.50;21.50;;;;;;2255780;61;20438;-63
2022/04/22 01:39:10;0.00;0.00;0.62;0.00;0.00;0.62;3.47;3.17;;;26.40;21.40;;;;;;2255962;61;20461;-62
2022/04/22 01:41:55;0.00;0.00;0.62;0.00;0.00;0.62;4.70;3.87;;;26.40;21.40;;;;;;2256257;61;20983;-61
2022/04/22 01:44:40;0.00;0.00;0.62;0.00;0.00;0.62;4.67;3.30;;;26.40;21.40;;;;;;2256196;61;20952;-63
2022/04/22 01:47:24;0.00;0.00;0.62;0.00;0.00;0.62;3.33;2.90;;;26.40;21.50;;;;;;2255790;61;20365;-63
2022/04/22 01:50:09;0.00;0.00;0.62;0.00;0.00;0.62;3.43;3.13;;;26.30;21.40;;;;;;2255449;61;20894;-61
2022/04/22 01:52:54;0.00;0.00;0.62;0.00;0.00;0.62;3.67;2.87;;;26.30;21.50;;;;;;2256349;61;20473;-61
2022/04/22 01:55:40;0.00;0.00;0.62;0.00;0.00;0.62;4.23;3.77;;;26.30;21.50;;;;;;2256939;61;20409;-62
2022/04/22 01:58:24;0.00;0.00;0.62;0.00;0.00;0.62;3.40;3.10;;;26.30;21.50;;;;;;2255271;61;20512;-63
2022/04/22 02:01:09;0.00;0.00;0.62;0.00;0.00;0.62;3.47;3.17;;;26.30;21.60;;;;;;2256395;61;20382;-62
2022/04/22 02:03:54;0.00;0.00;0.62;0.00;0.00;0.62;5.13;4.13;;;26.30;21.60;;;;;;2256457;61;20885;-61
2022/04/22 02:06:39;0.00;0.00;0.62;0.00;0.00;0.62;3.60;3.30;;;26.20;21.60;;;;;;2256002;61;20376;-63
2022/04/22 02:09:24;0.00;0.00;0.62;0.00;0.00;0.62;4.20;3.40;;;26.20;21.60;;;;;;2256023;61;20370;-59
2022/04/22 02:12:10;0.00;0.00;0.62;0.00;0.00;0.62;3.33;3.00;;;26.20;21.60;;;;;;2256108;61;20386;-62
2022/04/22 02:14:56;0.00;0.00;0.62;0.00;0.00;0.62;3.67;3.33;;;26.20;21.60;;;;;;2256439;61;20358;-61
2022/04/22 02:17:41;0.00;0.00;0.62;0.00;0.00;0.62;3.00;2.70;;;26.20;21.60;;;;;;2256799;61;20945;-62
2022/04/22 02:20:25;0.00;0.00;0.62;0.00;0.00;0.62;2.83;2.60;;;26.20;21.60;;;;;;2255472;61;20456;-62
2022/04/22 02:23:10;0.00;0.00;0.62;0.00;0.00;0.62;3.57;3.27;;;26.20;21.70;;;;;;2256394;61;20362;-62
2022/04/22 02:25:54;0.00;0.00;0.62;0.00;0.00;0.62;3.20;2.90;;;26.10;21.70;;;;;;2256608;61;20488;-62
2022/04/22 02:28:40;0.00;0.00;0.62;0.00;0.00;0.62;3.27;2.97;;;26.10;21.60;;;;;;2255452;61;20781;-61
2022/04/22 02:31:25;0.00;0.00;0.62;0.00;0.00;0.62;3.40;2.80;;;26.10;21.60;;;;;;2256254;61;21024;-60
2022/04/22 02:34:09;0.00;0.00;0.62;0.00;0.00;0.62;4.33;3.20;;;26.10;21.70;;;;;;2255754;61;20429;-61
2022/04/22 02:36:54;0.00;0.00;0.62;0.00;0.00;0.62;3.53;2.60;;;26.00;21.60;;;;;;2256303;61;20366;-61
2022/04/22 02:39:38;0.00;0.00;0.62;0.00;0.00;0.62;4.20;3.47;;;26.00;21.60;;;;;;2256068;61;20936;-62
2022/04/22 02:45:36;0.00;0.00;0.62;0.00;0.00;0.62;3.23;2.90;;;26.00;21.60;;;;;;2253545;61;20429;-62
2022/04/22 02:48:21;0.00;0.00;0.62;0.00;0.00;0.62;3.00;2.70;;;26.00;21.70;;;;;;2255700;61;20393;-61
2022/04/22 02:51:06;0.00;0.00;0.62;0.00;0.00;0.62;4.93;3.90;;;26.00;21.70;;;;;;2253070;61;20401;-68
2022/04/22 02:53:50;0.00;0.00;0.62;0.00;0.00;0.62;3.37;3.07;;;25.90;21.70;;;;;;2256107;61;20362;-61
2022/04/22 02:56:35;0.00;0.00;0.62;0.00;0.00;0.62;3.83;3.03;;;25.90;21.70;;;;;;2255432;61;20389;-62
2022/04/22 02:59:20;0.00;0.00;0.62;0.00;0.00;0.62;3.73;2.90;;;25.90;21.70;;;;;;2256296;61;20362;-60
2022/04/22 03:02:08;0.00;0.00;0.62;0.00;0.00;0.62;3.40;3.10;;;25.90;21.70;;;;;;2256556;61;20425;-61
2022/04/22 03:04:53;0.00;0.00;0.62;0.00;0.00;0.62;4.07;2.97;;;25.90;21.80;;;;;;2255545;61;20698;-60
2022/04/22 03:07:38;0.00;0.00;0.62;0.00;0.00;0.62;3.43;3.00;;;25.90;21.80;;;;;;2256104;61;20365;-60
2022/04/22 03:10:23;0.00;0.00;0.62;0.00;0.00;0.62;3.10;2.80;;;25.80;21.70;;;;;;2256417;61;20346;-63
2022/04/22 03:13:07;0.00;0.00;0.62;0.00;0.00;0.62;4.10;2.90;;;25.80;21.70;;;;;;2256110;61;20804;-61
2022/04/22 03:15:52;0.00;0.00;0.62;0.00;0.00;0.62;2.77;2.30;;;25.80;21.80;;;;;;2256386;61;20459;-62
2022/04/22 03:18:38;0.00;0.00;0.62;0.00;0.00;0.62;3.40;2.60;;;25.80;21.80;;;;;;2255330;61;20929;-60
2022/04/22 03:21:23;0.00;0.00;0.62;0.00;0.00;0.62;2.80;2.50;;;25.80;21.80;;;;;;2256707;61;20417;-60
2022/04/22 03:24:07;0.00;0.00;0.62;0.00;0.00;0.62;2.77;2.40;;;25.80;21.80;;;;;;2256411;61;20366;-60
2022/04/22 03:26:53;0.00;0.00;0.62;0.00;0.00;0.62;4.57;2.87;;;25.80;21.80;;;;;;2255481;61;20764;-60
2022/04/22 03:29:38;0.00;0.00;0.62;0.00;0.00;0.62;2.83;2.30;;;25.80;21.80;;;;;;2255700;61;20408;-62
2022/04/22 03:32:23;0.00;0.00;0.62;0.00;0.00;0.62;3.00;2.40;;;25.70;21.80;;;;;;2256728;61;20381;-59
2022/04/22 03:35:09;0.00;0.00;0.62;0.00;0.00;0.62;3.87;2.80;;;25.70;21.80;;;;;;2256451;61;20820;-59
2022/04/22 03:37:54;0.00;0.00;0.62;0.00;0.00;0.62;3.77;2.80;;;25.70;21.80;;;;;;2256317;61;20496;-62
2022/04/22 03:40:39;0.00;0.00;0.62;0.00;0.00;0.62;3.53;2.50;;;25.70;21.80;;;;;;2256522;61;20401;-60
2022/04/22 03:43:25;0.00;0.00;0.62;0.00;0.00;0.62;2.23;2.03;;;25.70;21.80;;;;;;2257269;61;20366;-60
2022/04/22 03:46:09;0.00;0.00;0.62;0.00;0.00;0.62;2.47;2.27;;;25.70;21.80;;;;;;2256717;61;20389;-60
2022/04/22 03:48:56;0.00;0.00;0.62;0.00;0.00;0.62;3.73;2.70;;;25.70;21.80;;;;;;2255635;61;20793;-61
2022/04/22 03:51:43;0.00;0.00;0.62;0.00;0.00;0.62;4.10;3.20;;;25.70;21.80;;;;;;2256753;61;20429;-62
2022/04/22 03:54:28;0.00;0.00;0.62;0.00;0.00;0.62;2.93;2.13;;;25.60;21.70;;;;;;2257014;61;20420;-60
2022/04/22 04:00:16;0.00;0.00;0.62;0.00;0.00;0.62;2.80;2.40;;;25.60;21.70;;;;;;2256670;61;20449;-62
2022/04/22 04:03:01;0.00;0.00;0.62;0.00;0.00;0.62;2.83;2.50;;;25.60;21.70;;;;;;2253342;61;20397;-64
2022/04/22 04:05:49;0.00;0.00;0.62;0.00;0.00;0.62;2.90;2.37;;;25.60;21.70;;;;;;2257286;61;20932;-62
2022/04/22 04:08:35;0.00;0.00;0.62;0.00;0.00;0.62;2.73;2.10;;;25.50;21.70;;;;;;2256625;61;20421;-60
2022/04/22 04:17:36;0.00;0.00;0.62;0.00;0.00;0.62;2.50;2.10;;;25.50;21.60;;;;;;2243497;61;20928;-59
2022/04/22 04:23:24;0.00;0.00;0.62;0.00;0.00;0.62;2.20;1.73;;;25.50;21.60;;;;;;2243738;61;20384;-68
2022/04/22 04:26:12;0.00;0.00;0.62;0.00;0.00;0.62;2.70;2.07;;;25.50;21.60;;;;;;2242769;61;20391;-66
2022/04/22 04:28:56;0.00;0.00;0.62;0.00;0.00;0.62;2.10;1.90;;;25.40;21.60;;;;;;2243954;61;20372;-65
2022/04/22 04:31:40;0.00;0.00;0.62;0.00;0.00;0.62;2.23;1.83;;;25.40;22.20;;;;;;2249127;61;20830;-70
2022/04/22 04:34:25;0.00;0.00;0.62;0.00;0.00;0.62;2.43;2.23;;;25.40;21.70;;;;;;2252703;61;20654;-67
2022/04/22 04:37:10;0.00;0.00;0.62;0.00;0.00;0.62;1.83;1.60;;;25.40;21.80;;;;;;2252892;61;20425;-53
2022/04/22 04:39:55;0.00;0.00;0.62;0.00;0.00;0.62;2.33;2.00;;;25.40;21.80;;;;;;2251616;61;20410;-53
2022/04/22 04:42:41;0.00;0.00;0.62;0.00;0.00;0.62;2.17;1.77;;;25.40;22.00;;;;;;2253825;61;20381;-65
2022/04/22 04:45:27;0.00;0.00;0.62;0.00;0.00;0.62;2.20;1.80;;;25.40;21.80;;;;;;2256599;61;20932;-67
2022/04/22 04:48:12;0.00;0.00;0.62;0.00;0.00;0.62;2.27;1.87;;;25.40;21.80;;;;;;2255510;61;20366;-52
2022/04/22 04:50:57;0.00;0.00;0.62;0.00;0.00;0.62;2.50;1.80;;;25.30;21.80;;;;;;2256389;61;20870;-54
2022/04/22 04:53:42;0.00;0.00;0.62;0.00;0.00;0.62;1.93;1.50;;;25.30;21.70;;;;;;2256886;61;20421;-53
2022/04/22 04:56:27;0.00;0.00;0.62;0.00;0.00;0.62;2.13;1.50;;;25.30;21.70;;;;;;2256003;61;20358;-54
2022/04/22 04:59:13;0.00;0.00;0.62;0.00;0.00;0.62;2.20;1.63;;;25.30;21.60;;;;;;2256204;61;20890;-58
2022/04/22 05:01:58;0.00;0.00;0.62;0.00;0.00;0.62;2.17;1.80;;;25.30;21.50;;;;;;2255896;61;20413;-66
2022/04/22 05:04:42;0.00;0.00;0.62;0.00;0.00;0.62;1.83;1.40;;;25.30;21.50;;;;;;2253506;61;20486;-62
2022/04/22 05:07:27;0.00;0.00;0.62;0.00;0.00;0.62;1.90;1.70;;;25.20;21.50;;;;;;2253199;61;20374;-52
2022/04/22 05:10:12;0.00;0.00;0.62;0.00;0.00;0.62;2.60;1.77;;;25.20;21.60;;;;;;2255766;61;20905;-56
2022/04/22 05:12:59;0.00;0.00;0.62;0.00;0.00;0.62;4.00;1.70;;;25.20;21.60;;;;;;2256706;61;20378;-53
2022/04/22 05:15:47;0.00;0.00;0.62;0.00;0.00;0.62;2.10;1.57;;;25.20;21.60;;;;;;2256637;61;20934;-56
2022/04/22 05:18:32;0.00;0.00;0.62;0.00;0.00;0.62;3.40;1.70;;;25.20;21.50;;;;;;2255419;61;20462;-52
2022/04/22 05:21:16;0.00;0.00;0.62;0.00;0.00;0.62;2.37;2.03;;;25.20;21.50;;;;;;2256532;61;20385;-65
2022/04/22 05:24:01;0.00;0.00;0.62;0.00;0.00;0.62;2.53;1.60;;;25.10;21.40;;;;;;2256481;61;20464;-64
2022/04/22 05:26:45;0.00;0.00;0.62;0.00;0.00;0.62;2.17;1.70;;;25.10;21.50;;;;;;2256867;61;20485;-60
2022/04/22 05:32:38;0.00;0.00;0.62;0.00;0.00;0.62;2.00;1.80;;;25.10;21.50;;;;;;2256336;61;20394;-62
2022/04/22 05:35:27;0.00;0.00;0.62;0.00;0.00;0.62;2.17;1.43;;;25.10;21.50;;;;;;2256902;61;20362;-59
2022/04/22 05:38:15;0.00;0.00;0.62;0.00;0.00;0.62;2.27;1.40;;;25.10;21.50;;;;;;2256853;61;20361;-60
2022/04/22 05:41:00;0.00;0.00;0.62;0.00;0.00;0.62;1.80;1.47;;;25.10;21.50;;;;;;2253550;61;20389;-59
2022/04/22 05:43:44;0.00;0.00;0.62;0.00;0.00;0.62;1.87;1.40;;;25.10;21.40;;;;;;2257021;61;20362;-62
2022/04/22 05:46:29;0.00;0.00;0.62;0.00;0.00;0.62;2.33;1.57;;;25.10;21.40;;;;;;2256457;61;20428;-54
2022/04/22 05:49:14;0.00;0.00;0.62;0.00;0.00;0.62;1.60;1.40;;;25.10;21.40;;;;;;2257070;61;20453;-66
2022/04/22 05:51:59;0.00;0.00;0.62;0.00;0.00;0.62;1.90;1.43;;;25.10;21.40;;;;;;2253359;61;20405;-61
2022/04/22 05:54:44;0.00;0.00;0.62;0.00;0.00;0.62;2.10;1.40;;;25.00;21.40;;;;;;2255169;61;20876;-57
2022/04/22 05:57:30;0.00;0.00;0.62;0.00;0.00;0.62;2.83;1.50;;;25.10;21.50;;;;;;2256257;61;20959;-56
2022/04/22 06:00:20;0.00;0.00;0.62;0.00;0.00;0.62;1.87;1.47;;;25.00;21.50;;;;;;2257044;61;20405;-65
2022/04/22 06:03:05;0.00;0.00;0.62;0.00;0.00;0.62;2.20;1.20;;;25.00;21.50;;;;;;2256314;61;20394;-54
2022/04/22 06:05:51;0.00;0.00;0.62;0.00;0.00;0.62;1.80;1.47;;;25.00;21.50;;;;;;2256071;61;20806;-59
2022/04/22 06:11:40;0.00;0.00;0.62;0.00;0.00;0.62;2.50;1.50;;;25.10;21.70;;;;;;2256502;61;20502;-57
2022/04/22 06:14:24;0.00;0.00;0.62;0.00;0.00;0.62;2.23;1.10;;;25.00;21.60;;;;;;2256444;61;20366;-55
2022/04/22 06:17:09;0.00;0.00;0.62;0.00;0.00;0.62;1.87;1.00;;;25.00;21.60;;;;;;2255643;61;20886;-57
2022/04/22 06:19:53;0.00;0.00;0.62;0.00;0.00;0.62;1.80;1.10;;;25.10;21.70;;;;;;2255776;61;20889;-57
2022/04/22 06:22:40;0.00;0.00;0.62;0.00;0.00;0.62;2.10;1.30;;;25.00;21.60;;;;;;2256740;61;20385;-54
2022/04/22 06:25:25;0.00;0.00;0.62;0.00;0.00;0.62;2.30;1.40;;;25.10;21.70;;;;;;2255866;61;20385;-53
2022/04/22 06:28:09;0.00;0.00;0.62;0.00;0.00;0.62;1.70;1.23;;;25.10;21.70;;;;;;2256198;61;20366;-53
2022/04/22 06:30:55;0.00;0.00;0.62;0.00;0.00;0.62;2.20;1.40;;;25.10;21.70;;;;;;2256099;61;20811;-60
2022/04/22 06:33:40;0.00;0.00;0.62;0.00;0.00;0.62;1.97;1.20;;;25.10;21.70;;;;;;2256659;61;20385;-57
2022/04/22 06:36:28;0.00;0.00;0.62;0.00;0.00;0.62;1.83;1.20;;;25.10;21.70;;;;;;2256795;61;20405;-51
2022/04/22 06:39:15;0.00;0.00;0.62;0.00;0.00;0.62;2.10;1.30;;;25.10;21.70;;;;;;2255793;61;20381;-52
2022/04/22 06:48:10;0.00;0.00;0.62;0.00;0.00;0.62;2.03;1.33;;;25.10;21.70;;;;;;2255969;61;20886;-55
2022/04/22 06:50:56;0.00;0.00;0.62;0.00;0.00;0.62;2.20;1.50;;;25.10;21.70;;;;;;2256318;61;20970;-52
2022/04/22 06:53:42;0.00;0.00;0.62;0.00;0.00;0.62;1.93;1.37;;;25.10;21.70;;;;;;2252863;61;20393;-52
2022/04/22 06:56:28;0.00;0.00;0.62;0.00;0.00;0.62;1.70;1.17;;;25.10;21.60;;;;;;2253277;61;20366;-54
2022/04/22 06:59:15;0.00;0.00;0.62;0.00;0.00;0.62;1.93;1.13;;;25.10;21.60;;;;;;2256368;61;20413;-55
2022/04/22 07:02:00;0.00;0.00;0.62;0.00;0.00;0.62;3.43;1.40;;;25.10;21.60;;;;;;2255977;61;20386;-56
2022/04/22 07:04:45;0.00;0.00;0.62;0.00;0.00;0.62;1.93;1.30;;;25.10;21.70;;;;;;2253939;61;20413;-49
2022/04/22 07:07:30;0.00;0.00;0.62;0.00;0.00;0.62;1.87;1.40;;;25.20;21.60;;;;;;2252271;61;20370;-52
2022/04/22 07:10:16;0.00;0.00;0.62;0.00;0.00;0.62;1.90;1.30;;;25.20;21.60;;;;;;2252322;61;20367;-50
2022/04/22 07:13:04;0.00;0.00;0.62;0.00;0.00;0.62;2.10;1.40;;;25.20;21.60;;;;;;2252398;61;20450;-50
2022/04/22 07:15:50;0.00;0.00;0.62;0.00;0.00;0.62;1.73;1.00;;;25.20;21.60;;;;;;2251891;61;20355;-54
2022/04/22 07:18:35;0.00;0.00;0.62;0.00;0.00;0.62;2.37;1.27;;;25.20;21.60;;;;;;2252065;61;20457;-51
2022/04/22 07:21:20;0.00;0.00;0.62;0.00;0.00;0.62;1.70;1.20;;;25.20;21.60;;;;;;2249267;61;20438;-56
2022/04/22 07:24:05;0.00;0.00;0.62;0.00;0.00;0.62;1.60;1.10;;;25.20;21.60;;;;;;2252013;61;20379;-54
2022/04/22 07:26:53;0.00;0.00;0.62;0.00;0.00;0.62;1.67;1.20;;;25.20;21.60;;;;;;2252108;61;20437;-51
2022/04/22 07:29:41;0.00;0.00;0.62;0.00;0.00;0.62;1.70;1.20;;;25.20;21.60;;;;;;2252122;61;20442;-51
2022/04/22 07:32:27;0.00;0.00;0.62;0.00;0.00;0.62;2.10;1.50;;;25.20;21.60;;;;;;2252279;61;20421;-52
2022/04/22 07:35:13;0.00;0.00;0.62;0.00;0.00;0.62;1.60;1.10;;;25.20;21.50;;;;;;2254151;61;20353;-54
2022/04/22 07:37:58;0.00;0.00;0.62;0.00;0.00;0.62;2.47;1.23;;;25.30;21.60;;;;;;2255879;61;20362;-51
2022/04/22 07:40:44;0.00;0.00;0.62;0.00;0.00;0.62;1.80;1.13;;;25.30;21.60;;;;;;2256437;61;20429;-58
2022/04/22 07:46:48;0.00;0.00;0.62;0.00;0.00;0.62;1.70;1.10;;;25.30;21.50;;;;;;2255794;61;20382;-54
2022/04/22 07:49:33;0.00;0.00;0.62;0.00;0.00;0.62;1.93;1.10;;;25.30;21.50;;;;;;2255840;61;20401;-54
2022/04/22 07:52:18;0.00;0.00;0.62;0.00;0.00;0.62;1.70;1.10;;;25.30;21.50;;;;;;2255836;61;20441;-53
2022/04/22 07:55:04;0.00;0.00;0.62;0.00;0.00;0.62;1.60;1.20;;;25.30;21.50;;;;;;2256360;61;20432;-53
2022/04/22 07:57:49;0.00;0.00;0.62;0.00;0.00;0.62;1.53;0.90;;;25.40;21.60;;;;;;2255868;61;20462;-49
2022/04/22 08:00:33;0.00;0.00;0.62;0.00;0.00;0.62;1.80;1.20;;;25.30;21.50;;;;;;2255896;61;20766;-55
2022/04/22 08:03:19;0.00;0.00;0.62;0.00;0.00;0.62;1.90;1.20;;;25.30;21.50;;;;;;2256283;61;20867;-56
2022/04/22 08:06:10;0.00;0.00;0.62;0.00;0.00;0.62;1.80;1.10;;;25.30;21.50;;;;;;2256356;61;20417;-57
2022/04/22 08:08:54;0.00;0.00;0.62;0.00;0.00;0.62;1.60;1.10;;;25.40;21.50;;;;;;2255768;61;20768;-52
2022/04/22 08:11:39;0.00;0.00;0.62;0.00;0.00;0.62;2.03;1.10;;;25.40;21.50;;;;;;2256099;61;20386;-51
2022/04/22 08:14:24;0.00;0.00;0.62;0.00;0.00;0.62;1.63;1.30;;;25.40;21.50;;;;;;2255933;61;20404;-54
2022/04/22 08:17:09;0.00;0.00;0.62;0.00;0.00;0.62;1.40;1.00;;;25.40;21.70;;;;;;2252772;61;20450;-52
2022/04/22 08:19:55;0.00;0.00;0.62;0.00;0.00;0.62;2.80;1.50;;;25.40;21.50;;;;;;2256668;61;20370;-52
2022/04/22 08:22:40;0.00;0.00;0.62;0.00;0.00;0.62;1.83;1.00;;;25.40;21.50;;;;;;2256356;61;20386;-55
2022/04/22 08:25:25;0.00;0.00;0.62;0.00;0.00;0.62;1.73;1.17;;;25.40;21.50;;;;;;2256904;61;20404;-51
2022/04/22 08:28:10;0.00;0.00;0.62;0.00;0.00;0.62;1.40;0.93;;;25.40;21.50;;;;;;2257045;61;20398;-55
2022/04/22 08:30:54;0.00;0.00;0.62;0.00;0.00;0.62;1.63;1.03;;;25.40;21.50;;;;;;2256185;61;20874;-54
2022/04/22 08:33:40;0.00;0.00;0.62;0.00;0.00;0.62;1.87;1.27;;;25.40;21.50;;;;;;2256375;61;20921;-50
2022/04/22 08:36:29;0.00;0.00;0.62;0.00;0.00;0.62;2.00;1.30;;;25.50;21.50;;;;;;2256511;61;20409;-54
2022/04/22 08:39:14;0.00;0.00;0.62;0.00;0.00;0.62;1.73;1.20;;;25.50;21.50;;;;;;2256602;61;20378;-55
2022/04/22 08:42:01;0.00;0.00;0.62;0.00;0.00;0.62;1.50;1.20;;;25.50;21.50;;;;;;2256946;61;20440;-57
2022/04/22 08:44:46;0.00;0.00;0.62;0.00;0.00;0.62;1.63;1.20;;;25.50;21.50;;;;;;2256723;61;20369;-55
2022/04/22 08:50:35;0.00;0.00;0.62;0.00;0.00;0.62;1.83;1.10;;;25.50;21.40;;;;;;2256804;61;20381;-49
2022/04/22 08:53:26;0.00;0.00;0.62;0.00;0.00;0.62;2.13;1.10;;;25.50;21.40;;;;;;2256663;61;20362;-50
2022/04/22 08:56:13;0.00;0.00;0.62;0.00;0.00;0.62;1.57;0.90;;;25.50;21.40;;;;;;2256772;61;20366;-54
2022/04/22 08:58:58;0.00;0.00;0.62;0.00;0.00;0.62;1.60;0.97;;;25.50;21.40;;;;;;2256561;61;20413;-54
2022/04/22 09:01:43;0.00;0.00;0.62;0.00;0.00;0.62;1.40;1.10;;;25.50;21.40;;;;;;2257063;61;20381;-52
2022/04/22 09:04:27;0.00;0.00;0.62;0.00;0.00;0.62;1.90;1.07;;;25.50;21.40;;;;;;2257061;61;20369;-55
2022/04/22 09:07:13;0.00;0.00;0.62;0.00;0.00;0.62;1.40;1.03;;;25.60;21.40;;;;;;2256403;61;20434;-50
2022/04/22 09:10:01;0.00;0.00;0.62;0.00;0.00;0.62;2.97;1.20;;;25.60;21.90;;;;;;2256701;61;20358;-55
2022/04/22 09:12:52;0.00;0.00;0.62;0.00;0.00;0.62;1.80;1.13;;;25.60;21.40;;;;;;2256882;61;20409;-50
2022/04/22 09:15:40;0.00;0.00;0.62;0.00;0.00;0.62;1.90;1.00;;;25.60;21.40;;;;;;2256715;61;20401;-54
2022/04/22 09:18:26;0.00;0.00;0.62;0.00;0.00;0.62;1.60;1.00;;;25.60;21.40;;;;;;2256452;61;20861;-55
2022/04/22 09:21:15;0.00;0.00;0.62;0.00;0.00;0.62;1.47;1.00;;;25.60;21.40;;;;;;2256500;61;20451;-51
2022/04/22 09:24:11;0.00;0.00;0.62;0.00;0.00;0.62;1.90;1.10;;;25.60;21.40;;;;;;2256794;61;20385;-53
2022/04/22 09:27:10;0.00;0.00;0.62;0.00;0.00;0.62;1.70;1.20;;;25.60;21.40;;;;;;2256969;61;20406;-56
2022/04/22 09:29:55;0.00;0.00;0.62;0.00;0.00;0.62;1.80;1.10;;;25.70;21.40;;;;;;2256183;61;20494;-51
2022/04/22 09:32:44;0.00;0.00;0.62;0.00;0.00;0.62;1.73;1.10;;;25.70;21.40;;;;;;2256681;61;20808;-55
2022/04/22 09:35:29;0.00;0.00;0.62;0.00;0.00;0.62;1.40;1.00;;;25.70;21.40;;;;;;2256630;61;20897;-55
2022/04/22 09:44:35;0.00;0.00;0.62;0.00;0.00;0.62;1.40;1.00;;;25.70;21.40;;;;;;2256201;61;20438;-54
2022/04/22 09:47:20;0.00;0.00;0.62;0.00;0.00;0.62;1.80;1.10;;;25.70;21.40;;;;;;2256436;61;20443;-53
2022/04/22 09:50:10;0.00;0.00;0.62;0.00;0.00;0.62;1.70;1.00;;;25.70;21.40;;;;;;2256441;61;20369;-59
2022/04/22 09:53:03;0.00;0.00;0.62;0.00;0.00;0.62;1.50;1.20;;;25.70;21.40;;;;;;2256626;61;20389;-56
2022/04/22 09:55:52;0.00;0.00;0.62;0.00;0.00;0.62;1.40;0.90;;;25.70;21.40;;;;;;2256700;61;20369;-55
2022/04/22 09:58:37;0.00;0.00;0.62;0.00;0.00;0.62;1.97;1.10;;;25.70;21.40;;;;;;2256109;61;20424;-55
2022/04/22 10:01:24;0.00;0.00;0.62;0.00;0.00;0.62;1.40;0.90;;;25.70;21.40;;;;;;2251579;61;20391;-58
2022/04/22 10:04:09;0.00;0.00;0.62;0.00;0.00;0.62;1.60;1.30;;;25.80;21.50;;;;;;2256705;61;20409;-54
2022/04/22 10:06:56;0.00;0.00;0.62;0.00;0.00;0.62;2.00;1.10;;;25.80;21.50;;;;;;2256300;61;20428;-55
2022/04/22 10:09:41;0.00;0.00;0.62;0.00;0.00;0.62;1.60;1.10;;;25.80;21.50;;;;;;2256412;61;20353;-57
2022/04/22 10:12:26;0.00;0.00;0.62;0.00;0.00;0.62;2.10;1.23;;;25.80;21.50;;;;;;2256483;61;20429;-53
2022/04/22 10:15:11;0.00;0.00;0.62;0.00;0.00;0.62;1.60;1.10;;;25.80;21.50;;;;;;2256740;61;20431;-58
2022/04/22 10:17:57;0.00;0.00;0.62;0.00;0.00;0.62;1.60;1.20;;;25.80;21.50;;;;;;2256259;61;20420;-51
2022/04/22 10:20:44;0.00;0.00;0.62;0.00;0.00;0.62;1.37;0.93;;;25.80;21.50;;;;;;2256482;61;20496;-53
2022/04/22 10:23:30;0.00;0.00;0.62;0.00;0.00;0.62;2.13;1.27;;;25.80;21.50;;;;;;2256767;61;20370;-57
2022/04/22 10:26:15;0.00;0.00;0.62;0.00;0.00;0.62;1.60;1.00;;;25.90;21.50;;;;;;2256712;61;20405;-51
2022/04/22 10:29:03;0.00;0.00;0.62;0.00;0.00;0.62;1.50;1.10;;;25.90;21.50;;;;;;2256208;61;20424;-54
2022/04/22 10:31:49;0.00;0.00;0.62;0.00;0.00;0.62;2.10;1.40;;;25.90;21.50;;;;;;2256236;61;20396;-55
2022/04/22 10:34:40;0.00;0.00;0.62;0.00;0.00;0.62;1.73;1.17;;;25.90;21.50;;;;;;2256620;61;20805;-54
2022/04/22 10:37:27;0.00;0.00;0.62;0.00;0.00;0.62;1.60;1.03;;;25.90;21.50;;;;;;2256976;61;20492;-57
2022/04/22 10:40:18;0.00;0.00;0.62;0.00;0.00;0.62;1.77;1.17;;;26.00;21.50;;;;;;2253213;61;20361;-55
2022/04/22 10:43:03;0.00;0.00;0.62;0.00;0.00;0.62;1.90;1.13;;;26.00;21.50;;;;;;2256344;61;20982;-52
2022/04/22 10:49:12;0.00;0.00;0.62;0.00;0.00;0.62;1.60;1.23;;;26.00;21.50;;;;;;2243456;61;20436;-58
2022/04/22 10:52:09;0.00;0.00;0.62;0.00;0.00;0.62;1.53;1.10;;;26.00;21.50;;;;;;2256423;61;20429;-52
2022/04/22 10:55:10;0.00;0.00;0.62;0.00;0.00;0.62;1.50;1.20;;;26.00;21.50;;;;;;2256075;61;20354;-57
2022/04/22 10:58:25;0.00;0.00;0.62;0.00;0.00;0.62;2.00;1.43;;;26.00;21.50;;;;;;2256085;61;20382;-53
2022/04/22 11:01:29;0.00;0.00;0.62;0.00;0.00;0.62;1.50;1.00;;;26.10;21.50;;;;;;2256453;61;20390;-52
2022/04/22 11:04:18;0.00;0.00;0.62;0.00;0.00;0.62;1.40;1.00;;;26.10;21.60;;;;;;2256548;61;20453;-53
2022/04/22 11:07:04;0.00;0.00;0.62;0.00;0.00;0.62;1.50;0.93;;;26.10;21.60;;;;;;2256599;61;20552;-56
2022/04/22 11:10:01;0.00;0.00;0.62;0.00;0.00;0.62;1.30;0.90;;;26.10;21.60;;;;;;2256238;61;20370;-57
2022/04/22 11:12:51;0.00;0.00;0.62;0.00;0.00;0.62;1.50;1.10;;;26.10;21.60;;;;;;2256145;61;20433;-52
2022/04/22 11:15:47;0.00;0.00;0.62;0.00;0.00;0.62;1.70;1.27;;;26.10;21.60;;;;;;2256262;61;20397;-53
2022/04/22 11:18:33;0.00;0.00;0.62;0.00;0.00;0.62;1.60;1.10;;;26.20;21.70;;;;;;2256388;61;20929;-51
2022/04/22 11:21:42;0.00;0.00;0.62;0.00;0.00;0.62;3.07;1.17;;;26.20;21.60;;;;;;2256470;61;20444;-54
2022/04/22 11:24:31;0.00;0.00;0.62;0.00;0.00;0.62;2.27;1.10;;;26.20;21.60;;;;;;2256121;61;20349;-53
2022/04/22 11:27:16;0.00;0.00;0.62;0.00;0.00;0.62;1.53;1.20;;;26.20;21.60;;;;;;2256044;61;20393;-57
2022/04/22 11:30:02;0.00;0.00;0.62;0.00;0.00;0.62;1.60;1.30;;;26.20;21.60;;;;;;2256533;61;20397;-55
2022/04/22 11:32:51;0.00;0.00;0.62;0.00;0.00;0.62;1.90;1.70;;;26.30;21.60;;;;;;2256779;61;20404;-56
2022/04/22 11:35:37;0.00;0.00;0.62;0.00;0.00;0.62;1.53;1.17;;;26.30;21.60;;;;;;2256229;61;20362;-53
2022/04/22 11:38:21;0.00;0.00;0.62;0.00;0.00;0.62;2.40;1.60;;;26.30;21.60;;;;;;2256226;61;20901;-52
2022/04/22 11:41:12;0.00;0.00;0.62;0.00;0.00;0.62;1.70;1.30;;;26.30;21.60;;;;;;2256447;61;20473;-54
2022/04/22 11:43:56;0.00;0.00;0.62;0.00;0.00;0.62;1.50;1.13;;;26.40;21.70;;;;;;2256510;61;20394;-54
2022/04/22 11:46:43;0.00;0.00;0.62;0.00;0.00;0.62;1.57;1.23;;;26.40;21.60;;;;;;2256279;61;20393;-62